Time;durP1;ratioP1;P1;durP2;ratioP2;P2;SDS_P1;SDS_P2;PMS_P1;PMS_P2;Temp;Humidity;BMP_temperature;BMP_pressure;BME280_temperature;BME280_humidity;BME280_pressure;Samples;Min_cycle;Max_cycle;Signal;HPM_P1;HPM_P2
2023/10/02 00:02:40;;;;;;;12.25;7.05;;;17.90;99.90;;;;;;5063183;27;20032;-43
2023/10/02 00:05:07;;;;;;;11.48;7.63;;;17.80;99.90;;;;;;5128550;27;20051;-43
2023/10/02 00:07:33;;;;;;;11.75;7.53;;;17.80;99.90;;;;;;5062669;28;20116;-43
2023/10/02 00:10:00;;;;;;;10.93;7.13;;;17.80;99.90;;;;;;5120056;27;20018;-42
2023/10/02 00:12:31;;;;;;;14.18;8.30;;;17.70;99.90;;;;;;5070768;27;20043;-42
2023/10/02 00:15:13;;;;;;;9.57;6.32;;;17.70;99.90;;;;;;5110312;27;20049;-43
2023/10/02 00:17:43;;;;;;;13.38;7.53;;;17.70;99.90;;;;;;5067914;27;20024;-43
2023/10/02 00:20:20;;;;;;;11.85;7.32;;;17.70;99.90;;;;;;5111913;27;20026;-42
2023/10/02 00:22:46;;;;;;;11.00;7.43;;;17.70;99.90;;;;;;5069628;27;20124;-42
2023/10/02 00:25:16;;;;;;;11.43;7.30;;;17.70;99.90;;;;;;5106585;27;20136;-43
2023/10/02 00:27:54;;;;;;;12.93;7.88;;;17.60;99.90;;;;;;5101140;27;20029;-43
2023/10/02 00:30:30;;;;;;;11.43;7.53;;;17.60;99.90;;;;;;5123472;27;20737;-43
2023/10/02 00:32:56;;;;;;;12.55;7.90;;;17.60;99.90;;;;;;5151615;27;20081;-43
2023/10/02 00:35:22;;;;;;;10.20;7.00;;;17.60;99.90;;;;;;5130567;27;20107;-43
2023/10/02 00:37:47;;;;;;;12.15;7.50;;;17.60;99.90;;;;;;5138555;27;20022;-43
2023/10/02 00:40:20;;;;;;;11.05;7.25;;;17.60;99.90;;;;;;5144649;27;20059;-42
2023/10/02 00:42:56;;;;;;;11.93;7.22;;;17.50;99.90;;;;;;5129573;27;20052;-43
2023/10/02 00:45:29;;;;;;;11.38;7.20;;;17.50;99.90;;;;;;5145468;27;20061;-43
2023/10/02 00:48:24;;;;;;;10.77;7.57;;;17.50;99.90;;;;;;5129185;27;20121;-43
2023/10/02 00:50:49;;;;;;;12.60;8.00;;;17.50;99.90;;;;;;5138722;27;20028;-43
2023/10/02 00:53:15;;;;;;;12.02;7.07;;;17.50;99.90;;;;;;5134550;27;20469;-43
2023/10/02 00:56:03;;;;;;;11.38;7.60;;;17.50;99.90;;;;;;5147238;27;20504;-43
2023/10/02 00:58:34;;;;;;;11.50;7.90;;;17.50;99.90;;;;;;5138192;27;20026;-44
2023/10/02 01:01:01;;;;;;;11.00;7.43;;;17.50;99.90;;;;;;5140451;27;20017;-43
2023/10/02 01:04:03;;;;;;;11.82;7.55;;;17.40;99.90;;;;;;5128767;27;20022;-43
2023/10/02 01:06:12;;;;;;;11.60;7.45;;;17.40;99.90;;;;;;5138634;27;20040;-43
2023/10/02 01:08:45;;;;;;;11.73;7.55;;;17.50;99.90;;;;;;5129770;27;20018;-43
2023/10/02 01:11:14;;;;;;;11.65;7.35;;;17.50;99.90;;;;;;5145856;27;20034;-43
2023/10/02 01:13:40;;;;;;;10.50;6.95;;;17.50;99.90;;;;;;5123389;27;20026;-42
2023/10/02 01:16:08;;;;;;;12.57;7.70;;;17.50;99.90;;;;;;5157931;27;20018;-43
2023/10/02 01:18:35;;;;;;;11.82;7.55;;;17.50;99.90;;;;;;5110296;27;20026;-43
2023/10/02 01:21:09;;;;;;;11.38;7.38;;;17.50;99.90;;;;;;5159121;27;20141;-43
2023/10/02 01:24:08;;;;;;;12.10;7.25;;;17.50;99.90;;;;;;5108462;27;20022;-43
2023/10/02 01:26:40;;;;;;;10.95;7.07;;;17.50;99.90;;;;;;5152555;27;20022;-43
2023/10/02 01:29:07;;;;;;;11.45;7.70;;;17.50;99.90;;;;;;5138556;27;20077;-43
2023/10/02 01:31:52;;;;;;;11.55;6.93;;;17.50;99.90;;;;;;5159126;27;20037;-45
2023/10/02 01:34:33;;;;;;;11.45;7.15;;;17.50;99.90;;;;;;5110793;27;20050;-43
2023/10/02 01:37:32;;;;;;;12.35;7.70;;;17.50;99.90;;;;;;5150311;27;20078;-43
2023/10/02 01:40:28;;;;;;;11.38;6.60;;;17.50;99.90;;;;;;5138586;27;20481;-43
2023/10/02 01:42:39;;;;;;;11.35;7.18;;;17.50;99.90;;;;;;5128426;27;20118;-41
2023/10/02 01:45:08;;;;;;;10.50;6.97;;;17.50;99.90;;;;;;5139325;27;20060;-43
2023/10/02 01:47:41;;;;;;;13.13;7.60;;;17.50;99.90;;;;;;5139433;27;20017;-44
2023/10/02 01:50:06;;;;;;;10.27;7.00;;;17.50;99.90;;;;;;5133633;27;20023;-43
2023/10/02 01:52:35;;;;;;;11.23;7.35;;;17.50;99.90;;;;;;5146729;27;20029;-43
2023/10/02 01:55:04;;;;;;;10.82;7.32;;;17.50;99.90;;;;;;5121092;27;20126;-43
2023/10/02 01:57:34;;;;;;;10.77;7.07;;;17.50;99.90;;;;;;5155799;27;20030;-43
2023/10/02 02:00:13;;;;;;;11.38;7.30;;;17.50;99.90;;;;;;5112509;27;20022;-43
2023/10/02 02:02:49;;;;;;;11.57;7.43;;;17.50;99.90;;;;;;5158340;27;20041;-42
2023/10/02 02:05:15;;;;;;;11.25;6.85;;;17.50;99.90;;;;;;5115923;27;20396;-43
2023/10/02 02:07:40;;;;;;;12.68;7.55;;;17.40;99.90;;;;;;5158685;27;20026;-43
2023/10/02 02:10:06;;;;;;;11.43;6.78;;;17.40;99.90;;;;;;5107357;27;20018;-43
2023/10/02 02:12:44;;;;;;;11.63;6.38;;;17.40;99.90;;;;;;5159692;27;20087;-43
2023/10/02 02:15:11;;;;;;;10.60;6.95;;;17.40;99.90;;;;;;5106714;27;20038;-42
2023/10/02 02:17:37;;;;;;;9.93;6.43;;;17.30;99.90;;;;;;5162893;27;20091;-42
2023/10/02 02:20:11;;;;;;;10.45;6.80;;;17.40;99.90;;;;;;5103664;27;20890;-43
2023/10/02 02:22:36;;;;;;;10.45;7.22;;;17.40;99.90;;;;;;5166344;27;20027;-42
2023/10/02 02:25:05;;;;;;;11.27;6.90;;;17.40;99.90;;;;;;5102566;27;20373;-42
2023/10/02 02:27:31;;;;;;;10.27;7.00;;;17.30;99.90;;;;;;5165729;27;20018;-43
2023/10/02 02:29:58;;;;;;;10.07;7.18;;;17.40;99.90;;;;;;5130128;27;20428;-42
2023/10/02 02:32:44;;;;;;;10.80;6.88;;;17.30;99.90;;;;;;5063751;28;20072;-42
2023/10/02 02:35:14;;;;;;;10.20;7.03;;;17.30;99.90;;;;;;5129217;27;20102;-42
2023/10/02 02:37:41;;;;;;;11.55;7.80;;;17.30;99.90;;;;;;5064590;28;20052;-42
2023/10/02 02:40:22;;;;;;;10.93;7.32;;;17.30;99.90;;;;;;5127258;27;20025;-42
2023/10/02 02:42:54;;;;;;;14.07;7.63;;;17.30;99.90;;;;;;5043409;28;20032;-42
2023/10/02 02:45:31;;;;;;;11.02;6.63;;;17.20;99.90;;;;;;5124905;27;20034;-42
2023/10/02 02:48:05;;;;;;;12.27;6.78;;;17.20;99.90;;;;;;5044179;28;20049;-42
2023/10/02 02:50:41;;;;;;;10.32;6.50;;;17.20;99.90;;;;;;5125457;27;20369;-42
2023/10/02 02:53:16;;;;;;;10.20;6.80;;;17.20;99.90;;;;;;5043417;28;20037;-42
2023/10/02 02:55:57;;;;;;;10.82;6.30;;;17.20;99.90;;;;;;5126772;27;20050;-42
2023/10/02 02:58:25;;;;;;;13.10;7.07;;;17.10;99.90;;;;;;5044209;28;20053;-43
2023/10/02 03:00:52;;;;;;;11.23;7.15;;;17.10;99.90;;;;;;5125855;27;20465;-43
2023/10/02 03:03:32;;;;;;;10.13;6.55;;;17.10;99.90;;;;;;5043166;28;20028;-43
2023/10/02 03:06:04;;;;;;;11.30;6.50;;;17.10;99.90;;;;;;5123398;27;20083;-43
2023/10/02 03:08:39;;;;;;;11.50;7.00;;;17.00;99.90;;;;;;5043627;28;20548;-42
2023/10/02 03:11:07;;;;;;;11.10;6.82;;;17.10;99.90;;;;;;5118139;27;20014;-43
2023/10/02 03:13:39;;;;;;;10.63;6.97;;;17.00;99.90;;;;;;5067414;27;20045;-43
2023/10/02 03:16:18;;;;;;;9.93;6.82;;;17.00;99.90;;;;;;5116106;27;20014;-43
2023/10/02 03:18:44;;;;;;;10.82;7.18;;;17.00;99.90;;;;;;5066956;27;20143;-42
2023/10/02 03:21:21;;;;;;;10.68;6.90;;;17.00;99.90;;;;;;5084598;27;20024;-43
2023/10/02 03:23:48;;;;;;;13.25;7.75;;;17.00;99.90;;;;;;5160871;27;20018;-43
2023/10/02 03:26:37;;;;;;;9.82;6.53;;;17.00;99.90;;;;;;5124140;27;20024;-43
2023/10/02 03:29:02;;;;;;;10.70;7.10;;;17.00;99.90;;;;;;5096696;27;20032;-42
2023/10/02 03:31:51;;;;;;;11.05;6.95;;;17.00;99.90;;;;;;5109562;27;20026;-43
2023/10/02 03:34:27;;;;;;;10.15;6.50;;;17.00;99.90;;;;;;5064194;27;20052;-43
2023/10/02 03:39:52;;;;;;;10.65;6.57;;;16.90;99.90;;;;;;5043298;28;20727;-42
2023/10/02 03:42:30;;;;;;;10.25;6.65;;;16.80;99.90;;;;;;5125987;27;20021;-42
2023/10/02 03:44:57;;;;;;;9.68;6.13;;;16.90;99.90;;;;;;5063430;28;20032;-43
2023/10/02 03:47:30;;;;;;;9.60;6.70;;;16.80;99.90;;;;;;5126379;27;20026;-43
2023/10/02 03:50:00;;;;;;;10.65;6.85;;;16.80;99.90;;;;;;5043810;28;20139;-42
2023/10/02 03:52:30;;;;;;;10.70;6.97;;;16.80;99.90;;;;;;5116614;27;20033;-44
2023/10/02 03:54:56;;;;;;;11.15;6.65;;;16.80;99.90;;;;;;5066698;27;20044;-44
2023/10/02 03:57:47;;;;;;;10.35;6.90;;;16.80;99.90;;;;;;5111088;27;20018;-43
2023/10/02 04:02:56;;;;;;;10.23;6.95;;;16.80;99.90;;;;;;5116147;27;20030;-44
2023/10/02 04:05:32;;;;;;;11.73;6.20;;;16.80;99.90;;;;;;5042483;28;20069;-43
2023/10/02 04:10:56;;;;;;;11.07;6.75;;;16.70;99.90;;;;;;5042958;28;20094;-44
2023/10/02 04:13:34;;;;;;;10.68;6.78;;;16.70;99.90;;;;;;5124888;27;20030;-44
2023/10/02 04:18:58;;;;;;;10.20;5.95;;;16.70;99.90;;;;;;5129026;27;20651;-44
2023/10/02 04:21:33;;;;;;;10.32;6.40;;;16.80;99.90;;;;;;5062017;28;20024;-44
2023/10/02 04:24:05;;;;;;;11.35;6.68;;;16.70;99.90;;;;;;5128293;27;20499;-44
2023/10/02 04:26:33;;;;;;;;;;;16.80;99.90;;;;;;5063430;27;20092;-43
2023/10/02 04:29:13;;;;;;;10.25;5.97;;;16.80;99.90;;;;;;5074424;27;19908;-43
2023/10/02 04:31:42;;;;;;;9.88;5.93;;;16.70;99.90;;;;;;5063587;27;20028;-44
2023/10/02 04:36:55;;;;;;;10.02;6.68;;;16.70;99.90;;;;;;5167542;27;20426;-43
2023/10/02 04:42:15;;;;;;;9.40;6.22;;;16.70;99.90;;;;;;5167612;27;20054;-43
2023/10/02 04:44:45;;;;;;;10.77;6.28;;;16.70;99.90;;;;;;5101530;27;20026;-43
2023/10/02 04:47:17;;;;;;;10.30;6.40;;;16.70;99.90;;;;;;5166303;27;20018;-43
2023/10/02 04:55:42;;;;;;;11.18;7.05;;;16.70;99.90;;;;;;5108156;27;20067;-43
2023/10/02 04:58:27;;;;;;;11.38;7.00;;;16.70;99.90;;;;;;5159864;27;20062;-43
2023/10/02 05:03:36;;;;;;;12.10;7.50;;;16.70;99.90;;;;;;5159776;27;20033;-44
2023/10/02 05:06:03;;;;;;;10.80;6.90;;;16.70;99.90;;;;;;5108586;27;20038;-44
2023/10/02 05:08:40;;;;;;;11.30;6.47;;;16.70;99.90;;;;;;5160086;27;20018;-44
2023/10/02 05:11:23;;;;;;;11.75;6.75;;;16.70;99.90;;;;;;5107215;27;20388;-44
2023/10/02 05:16:35;;;;;;;11.77;7.28;;;16.60;99.90;;;;;;5107773;27;20031;-43
2023/10/02 05:19:04;;;;;;;12.00;7.03;;;16.60;99.90;;;;;;5159132;27;20016;-42
2023/10/02 05:21:36;;;;;;;13.80;7.43;;;16.60;99.90;;;;;;5108333;27;20018;-42
2023/10/02 05:24:11;;;;;;;12.00;7.20;;;16.60;99.90;;;;;;5158127;27;21258;-42
2023/10/02 05:26:41;;;;;;;10.98;6.97;;;16.60;99.90;;;;;;5108218;27;20060;-43
2023/10/02 05:29:09;;;;;;;13.35;8.18;;;16.60;99.90;;;;;;5110086;27;20459;-42
2023/10/02 05:31:36;;;;;;;11.13;6.93;;;16.60;99.90;;;;;;5116296;27;20044;-42
2023/10/02 05:34:27;;;;;;;11.38;7.50;;;16.50;99.90;;;;;;5060564;28;20080;-43
2023/10/02 05:39:39;;;;;;;11.77;7.15;;;16.50;99.90;;;;;;5067886;27;20059;-42
2023/10/02 05:42:13;;;;;;;10.27;7.20;;;16.50;99.90;;;;;;5115948;27;20019;-43
2023/10/02 05:44:47;;;;;;;11.82;6.75;;;16.50;99.90;;;;;;5159308;27;20123;-43
2023/10/02 05:47:15;;;;;;;10.27;7.15;;;16.50;99.90;;;;;;5106977;27;20022;-43
2023/10/02 05:49:47;;;;;;;11.73;6.85;;;16.50;99.90;;;;;;5163398;27;20032;-43
2023/10/02 05:52:14;;;;;;;10.18;6.38;;;16.50;99.90;;;;;;5116079;27;20057;-43
2023/10/02 05:54:47;;;;;;;12.05;7.15;;;16.50;99.90;;;;;;5061359;27;20035;-42
2023/10/02 05:57:16;;;;;;;;;;;16.50;99.90;;;;;;5101169;27;20112;-42
2023/10/02 05:59:45;;;;;;;9.65;5.80;;;16.50;99.90;;;;;;5170548;27;19943;-42
2023/10/02 06:02:17;;;;;;;11.30;6.80;;;16.50;99.90;;;;;;5103415;27;20032;-42
2023/10/02 06:04:47;;;;;;;11.95;7.05;;;16.50;99.90;;;;;;5171687;27;20121;-42
2023/10/02 06:07:40;;;;;;;10.70;6.88;;;16.40;99.90;;;;;;5102923;27;20038;-43
2023/10/02 06:10:08;;;;;;;12.48;7.55;;;16.50;99.90;;;;;;5170028;27;20098;-42
2023/10/02 06:12:35;;;;;;;9.93;6.40;;;16.50;99.90;;;;;;5100609;27;20111;-42
2023/10/02 06:15:09;;;;;;;11.35;7.30;;;16.50;99.90;;;;;;5168755;27;20149;-42
2023/10/02 06:17:36;;;;;;;10.52;6.80;;;16.50;99.90;;;;;;5103028;27;20028;-43
2023/10/02 06:20:01;;;;;;;11.35;6.93;;;16.50;99.90;;;;;;5168874;27;20037;-43
2023/10/02 06:22:27;;;;;;;11.70;6.97;;;16.60;99.90;;;;;;5109231;27;20020;-42
2023/10/02 06:24:52;;;;;;;11.55;7.15;;;16.60;99.90;;;;;;5164432;27;20041;-42
2023/10/02 06:27:24;;;;;;;9.77;6.03;;;16.60;99.90;;;;;;5123584;27;20020;-43
2023/10/02 06:29:51;;;;;;;11.93;7.00;;;16.60;99.90;;;;;;5155473;27;20109;-43
2023/10/02 06:32:19;;;;;;;13.57;7.45;;;16.70;99.90;;;;;;5132851;27;20028;-43
2023/10/02 06:34:47;;;;;;;10.38;6.50;;;16.70;99.90;;;;;;5142319;27;20038;-43
2023/10/02 06:37:17;;;;;;;10.98;6.47;;;16.70;99.90;;;;;;5142907;27;20081;-41
2023/10/02 06:39:45;;;;;;;11.35;7.10;;;16.80;99.90;;;;;;5134294;27;20065;-43
2023/10/02 06:42:15;;;;;;;11.45;7.15;;;16.80;99.90;;;;;;5151036;27;20471;-43
2023/10/02 06:44:53;;;;;;;11.07;6.50;;;16.90;99.90;;;;;;5125006;27;20520;-43
2023/10/02 06:47:24;;;;;;;11.65;6.25;;;16.90;99.90;;;;;;5153212;27;20471;-43
2023/10/02 06:50:02;;;;;;;12.75;7.03;;;16.90;99.90;;;;;;5122557;27;20389;-43
2023/10/02 06:52:29;;;;;;;11.38;6.68;;;17.00;99.90;;;;;;5154436;27;20757;-43
2023/10/02 06:54:56;;;;;;;11.25;6.78;;;17.00;99.90;;;;;;5120302;27;20385;-43
2023/10/02 06:57:24;;;;;;;11.98;6.68;;;17.10;99.90;;;;;;5161246;27;20029;-42
2023/10/02 06:59:51;;;;;;;11.25;6.70;;;17.10;99.90;;;;;;5110649;27;20026;-43
2023/10/02 07:02:26;;;;;;;11.48;6.95;;;17.10;99.90;;;;;;5161072;27;20018;-42
2023/10/02 07:04:53;;;;;;;13.93;7.07;;;17.20;99.90;;;;;;5110581;27;20060;-43
2023/10/02 07:07:24;;;;;;;12.20;7.80;;;17.30;99.90;;;;;;5163365;27;20018;-43
2023/10/02 07:10:07;;;;;;;13.77;7.30;;;17.30;99.90;;;;;;5118641;27;20029;-43
2023/10/02 07:12:39;;;;;;;10.52;6.80;;;17.40;99.90;;;;;;5071295;27;20025;-43
2023/10/02 07:15:13;;;;;;;11.45;6.85;;;17.50;99.90;;;;;;5123080;27;20119;-43
2023/10/02 07:17:49;;;;;;;11.45;6.97;;;17.60;99.90;;;;;;5068105;27;20065;-44
2023/10/02 07:20:15;;;;;;;11.95;7.25;;;17.60;99.90;;;;;;5119304;27;20035;-43
2023/10/02 07:22:43;;;;;;;13.32;7.38;;;17.80;99.90;;;;;;5064229;27;20029;-43
2023/10/02 07:25:09;;;;;;;13.48;7.95;;;17.80;99.90;;;;;;5128315;27;20074;-43
2023/10/02 07:27:37;;;;;;;10.98;6.70;;;17.90;99.90;;;;;;5063182;28;20027;-43
2023/10/02 07:30:04;;;;;;;12.10;6.72;;;17.90;99.90;;;;;;5128643;27;20026;-43
2023/10/02 07:32:32;;;;;;;9.85;6.45;;;17.90;99.90;;;;;;5059982;27;20041;-43
2023/10/02 07:35:21;;;;;;;12.25;7.00;;;18.00;99.90;;;;;;5126744;27;20152;-43
2023/10/02 07:37:59;;;;;;;12.73;6.68;;;18.00;99.90;;;;;;5042062;28;20097;-43
2023/10/02 07:40:46;;;;;;;12.60;6.60;;;18.10;99.90;;;;;;5127631;27;20376;-47
2023/10/02 07:43:13;;;;;;;10.95;6.57;;;18.20;99.90;;;;;;5062982;28;20147;-43
2023/10/02 07:45:39;;;;;;;12.10;7.47;;;18.20;99.90;;;;;;5128479;27;20030;-43
2023/10/02 07:48:08;;;;;;;10.98;6.57;;;18.30;99.90;;;;;;5063113;28;20025;-43
2023/10/02 07:50:39;;;;;;;11.25;6.55;;;18.40;99.90;;;;;;5130091;27;20203;-44
2023/10/02 07:53:06;;;;;;;12.25;6.97;;;18.50;99.90;;;;;;5061686;27;20028;-43
2023/10/02 07:55:42;;;;;;;10.77;7.00;;;18.60;99.90;;;;;;5120487;27;20038;-42
2023/10/02 07:58:08;;;;;;;12.63;6.75;;;18.60;99.90;;;;;;5063812;27;20048;-42
2023/10/02 08:00:38;;;;;;;11.52;6.93;;;18.70;99.90;;;;;;5113878;27;20030;-42
2023/10/02 08:05:58;;;;;;;10.10;6.15;;;18.90;99.90;;;;;;5123215;27;20400;-43
2023/10/02 08:08:31;;;;;;;12.55;7.25;;;19.00;99.90;;;;;;5065932;27;20047;-43
2023/10/02 08:10:58;;;;;;;13.10;7.20;;;19.00;99.90;;;;;;5116086;27;20042;-42
2023/10/02 08:13:33;;;;;;;11.60;6.85;;;19.10;99.90;;;;;;5073316;27;20028;-42
2023/10/02 08:16:02;;;;;;;12.93;6.63;;;19.10;99.90;;;;;;5110617;27;20113;-42
2023/10/02 08:18:30;;;;;;;11.98;7.18;;;19.20;99.90;;;;;;5078256;27;20033;-42
2023/10/02 08:20:55;;;;;;;11.48;6.78;;;19.20;99.90;;;;;;5099343;27;20018;-42
2023/10/02 08:23:21;;;;;;;11.65;7.13;;;19.20;99.90;;;;;;5089118;27;20079;-42
2023/10/02 08:26:02;;;;;;;13.48;7.05;;;19.30;99.90;;;;;;5086096;27;20578;-42
2023/10/02 08:28:35;;;;;;;10.40;6.82;;;19.30;99.90;;;;;;5115492;27;20042;-42
2023/10/02 08:31:02;;;;;;;11.63;6.63;;;19.40;99.90;;;;;;5140849;27;20111;-43
2023/10/02 08:33:30;;;;;;;11.45;6.30;;;19.50;99.90;;;;;;5128760;27;20046;-42
2023/10/02 08:36:09;;;;;;;12.27;7.30;;;19.60;99.90;;;;;;5152388;27;20097;-42
2023/10/02 08:38:40;;;;;;;11.77;7.68;;;19.70;99.90;;;;;;5126079;27;20026;-42
2023/10/02 08:41:12;;;;;;;13.27;7.53;;;19.80;99.90;;;;;;5152616;27;20062;-42
2023/10/02 08:43:44;;;;;;;10.80;7.13;;;19.80;99.90;;;;;;5121877;27;20051;-43
2023/10/02 08:46:21;;;;;;;13.40;8.40;;;19.90;99.90;;;;;;5157180;27;20507;-43
2023/10/02 08:48:56;;;;;;;12.48;7.30;;;19.90;99.90;;;;;;5120071;27;20028;-43
2023/10/02 08:51:35;;;;;;;11.10;6.60;;;19.90;99.90;;;;;;5155767;27;20044;-43
2023/10/02 08:54:05;;;;;;;9.63;6.18;;;20.00;99.90;;;;;;5122870;27;20031;-43
2023/10/02 08:56:48;;;;;;;12.90;6.97;;;20.10;99.90;;;;;;5157015;27;20106;-43
2023/10/02 08:59:18;;;;;;;10.43;6.35;;;20.10;99.90;;;;;;5124073;27;20022;-43
2023/10/02 09:01:47;;;;;;;10.93;7.13;;;20.20;99.90;;;;;;5154268;27;20025;-42
2023/10/02 09:07:14;;;;;;;11.93;6.85;;;20.30;99.90;;;;;;5156311;27;20025;-43
2023/10/02 09:09:45;;;;;;;13.65;8.10;;;20.30;99.90;;;;;;5125893;27;20113;-42
2023/10/02 09:12:15;;;;;;;12.05;7.60;;;20.40;99.90;;;;;;5149932;27;20547;-42
2023/10/02 09:14:43;;;;;;;10.63;6.85;;;20.40;99.90;;;;;;5121628;27;20045;-42
2023/10/02 09:17:18;;;;;;;10.35;6.68;;;20.40;99.90;;;;;;5157574;27;20026;-42
2023/10/02 09:20:00;;;;;;;11.57;7.35;;;20.50;99.90;;;;;;5115911;27;20034;-43
2023/10/02 09:22:27;;;;;;;11.57;6.88;;;20.50;99.90;;;;;;5154269;27;20025;-43
2023/10/02 09:27:56;;;;;;;13.48;7.72;;;20.50;99.90;;;;;;5152620;27;20063;-43
2023/10/02 09:33:22;;;;;;;13.40;8.10;;;20.60;99.90;;;;;;5142232;27;20051;-44
2023/10/02 09:35:51;;;;;;;12.77;7.35;;;20.60;99.90;;;;;;5140654;27;20054;-44
2023/10/02 09:38:17;;;;;;;13.55;8.05;;;20.70;99.90;;;;;;5138636;27;20023;-43
2023/10/02 09:40:59;;;;;;;15.10;8.82;;;20.70;99.90;;;;;;5128803;27;20043;-44
2023/10/02 09:43:35;;;;;;;12.98;7.55;;;20.70;99.90;;;;;;5141564;27;20056;-44
2023/10/02 09:46:06;;;;;;;16.27;8.43;;;20.80;99.90;;;;;;5133379;27;20055;-44
2023/10/02 09:52:15;;;;;;;13.05;7.80;;;20.80;99.90;;;;;;5137020;27;20487;-43
2023/10/02 09:54:51;;;;;;;11.45;6.82;;;20.80;99.90;;;;;;5101662;27;20108;-44
2023/10/02 09:57:29;;;;;;;14.15;8.05;;;20.80;99.90;;;;;;5040842;28;20559;-43
2023/10/02 09:59:57;;;;;;;12.57;7.80;;;20.80;99.90;;;;;;5124072;27;20034;-43
2023/10/02 10:10:57;;;;;;;11.15;6.57;;;20.90;99.90;;;;;;5127018;27;20500;-43
2023/10/02 10:13:38;;;;;;;11.32;7.32;;;21.00;99.90;;;;;;5059526;28;20093;-42
2023/10/02 10:16:18;;;;;;;12.02;7.35;;;21.00;99.90;;;;;;5119133;27;20131;-43
2023/10/02 10:19:26;;;;;;;13.60;7.15;;;21.10;99.90;;;;;;5067524;27;20452;-43
2023/10/02 10:21:58;;;;;;;11.68;6.95;;;21.10;99.90;;;;;;5105625;27;20062;-43
2023/10/02 10:24:56;;;;;;;11.27;7.00;;;21.20;99.90;;;;;;5158205;27;20026;-43
2023/10/02 10:27:40;;;;;;;9.93;6.20;;;21.30;99.90;;;;;;5131035;27;20019;-43
2023/10/02 10:30:24;;;;;;;11.57;7.00;;;21.40;99.90;;;;;;5109292;27;20015;-43
2023/10/02 10:35:48;;;;;;;13.30;7.72;;;21.50;99.90;;;;;;5104368;27;20046;-43
2023/10/02 10:38:21;;;;;;;14.32;8.15;;;21.50;99.90;;;;;;5071977;27;20033;-43
2023/10/02 10:40:50;;;;;;;15.93;8.32;;;21.50;99.90;;;;;;5086130;27;20036;-42
2023/10/02 10:43:21;;;;;;;15.93;8.18;;;21.50;99.90;;;;;;5148408;27;20503;-43
2023/10/02 10:45:48;;;;;;;14.23;8.02;;;21.50;99.90;;;;;;5131425;27;20037;-43
2023/10/02 10:48:24;;;;;;;15.38;8.82;;;21.60;99.90;;;;;;5141665;27;20018;-43
2023/10/02 10:50:59;;;;;;;12.73;7.85;;;21.60;99.90;;;;;;5105676;27;20807;-42
2023/10/02 10:53:29;;;;;;;14.68;8.23;;;21.70;99.90;;;;;;5081270;27;20443;-43
2023/10/02 10:56:28;;;;;;;13.60;7.90;;;21.70;99.90;;;;;;5085469;27;20383;-42
2023/10/02 10:59:10;;;;;;;11.88;6.95;;;21.80;99.90;;;;;;5156475;27;20410;-43
2023/10/02 11:04:34;;;;;;;11.43;7.38;;;22.00;99.90;;;;;;5043882;28;20082;-43
2023/10/02 11:07:00;;;;;;;12.95;8.00;;;22.20;99.90;;;;;;5120137;27;20393;-43
2023/10/02 11:09:25;;;;;;;11.75;6.78;;;22.30;99.90;;;;;;5068273;27;20483;-43
2023/10/02 11:11:53;;;;;;;10.82;7.13;;;22.40;99.90;;;;;;5111005;27;20026;-43
2023/10/02 11:14:35;;;;;;;13.10;8.05;;;22.40;99.90;;;;;;5080431;27;20115;-43
2023/10/02 11:17:04;;;;;;;16.73;8.30;;;22.50;99.90;;;;;;5108683;27;20402;-43
2023/10/02 11:22:14;;;;;;;11.52;6.97;;;22.50;99.90;;;;;;5099533;27;20099;-42
2023/10/02 11:25:04;;;;;;;12.32;7.65;;;22.50;99.90;;;;;;5080657;27;20116;-43
2023/10/02 11:27:29;;;;;;;10.38;6.70;;;22.50;99.90;;;;;;5104330;27;20106;-43
2023/10/02 11:30:01;;;;;;;11.88;7.30;;;22.60;99.90;;;;;;5152052;27;20059;-43
2023/10/02 11:32:45;;;;;;;10.37;6.80;;;22.60;99.90;;;;;;5126851;27;20104;-43
2023/10/02 11:35:11;;;;;;;9.07;5.93;;;22.60;99.90;;;;;;5159024;27;20046;-44
2023/10/02 11:37:47;;;;;;;9.85;5.95;;;22.70;99.90;;;;;;5126456;27;20035;-43
2023/10/02 11:40:13;;;;;;;10.93;7.03;;;22.70;99.90;;;;;;5153299;27;20030;-43
2023/10/02 11:42:40;;;;;;;9.60;6.20;;;22.60;99.90;;;;;;5132548;27;20031;-43
2023/10/02 11:45:07;;;;;;;10.70;6.65;;;22.70;99.90;;;;;;5139550;27;20496;-43
2023/10/02 11:47:33;;;;;;;10.60;6.60;;;22.60;99.90;;;;;;5143892;27;20880;-44
2023/10/02 11:49:59;;;;;;;13.88;7.55;;;22.60;99.90;;;;;;5121532;27;20026;-43
2023/10/02 11:52:25;;;;;;;11.80;7.28;;;22.60;99.90;;;;;;5096944;27;20033;-43
2023/10/02 11:54:51;;;;;;;14.18;7.70;;;22.60;99.90;;;;;;5113202;27;20041;-44
2023/10/02 11:57:17;;;;;;;11.38;6.70;;;22.60;99.90;;;;;;5160540;27;20017;-43
2023/10/02 11:59:47;;;;;;;10.32;6.38;;;22.60;99.90;;;;;;5108955;27;20018;-43
2023/10/02 12:02:17;;;;;;;11.75;6.95;;;22.60;99.90;;;;;;5160635;27;20477;-44
2023/10/02 12:04:44;;;;;;;12.23;7.03;;;22.60;99.90;;;;;;5117472;27;20099;-43
2023/10/02 12:07:16;;;;;;;10.40;7.20;;;22.70;99.90;;;;;;5062079;28;20043;-44
2023/10/02 12:09:49;;;;;;;11.32;6.70;;;22.70;99.90;;;;;;5102605;27;20117;-44
2023/10/02 12:12:16;;;;;;;13.15;7.45;;;22.80;99.90;;;;;;5166706;27;20041;-36
2023/10/02 12:14:42;;;;;;;11.40;6.63;;;22.90;99.90;;;;;;5101398;27;20040;-36
2023/10/02 12:17:11;;;;;;;10.40;6.70;;;22.90;99.90;;;;;;5167184;27;20029;-35
2023/10/02 12:19:39;;;;;;;10.65;6.85;;;23.00;99.90;;;;;;5100531;27;20060;-36
2023/10/02 12:22:06;;;;;;;12.57;7.53;;;23.10;99.90;;;;;;5167336;27;20059;-36
2023/10/02 12:24:35;;;;;;;12.45;7.22;;;23.10;99.90;;;;;;5110291;27;20106;-36
2023/10/02 12:27:04;;;;;;;9.50;5.75;;;23.20;99.90;;;;;;5160698;27;20112;-35
2023/10/02 12:29:30;;;;;;;11.80;6.55;;;23.20;99.90;;;;;;5107566;27;20486;-36
2023/10/02 12:32:00;;;;;;;14.13;7.60;;;23.30;99.90;;;;;;5161637;27;20022;-35
2023/10/02 12:34:27;;;;;;;9.90;6.25;;;23.30;99.90;;;;;;5128376;27;20067;-35
2023/10/02 12:37:03;;;;;;;11.43;7.30;;;23.40;99.90;;;;;;5139899;27;20753;-35
2023/10/02 12:39:30;;;;;;;13.25;7.47;;;23.40;99.90;;;;;;5134145;27;20013;-35
2023/10/02 12:41:56;;;;;;;12.57;6.90;;;23.40;99.90;;;;;;5134302;27;20030;-36
2023/10/02 12:44:21;;;;;;;12.07;6.45;;;23.40;99.90;;;;;;5146555;27;20014;-36
2023/10/02 12:46:50;;;;;;;10.85;7.07;;;23.40;99.90;;;;;;5120924;27;20053;-36
2023/10/02 12:49:19;;;;;;;13.15;7.38;;;23.40;99.90;;;;;;5158257;27;20376;-35
2023/10/02 12:51:45;;;;;;;8.80;6.38;;;23.40;99.90;;;;;;5112389;27;20026;-36
2023/10/02 12:54:11;;;;;;;11.63;6.45;;;23.50;99.90;;;;;;5157597;27;20390;-36
2023/10/02 12:56:39;;;;;;;10.10;6.22;;;23.50;99.90;;;;;;5108389;27;20030;-35
2023/10/02 12:59:07;;;;;;;10.43;6.38;;;23.50;99.90;;;;;;5161247;27;20118;-36
2023/10/02 13:01:33;;;;;;;10.77;6.80;;;23.50;99.90;;;;;;5107328;27;20032;-36
2023/10/02 13:03:59;;;;;;;14.48;7.72;;;23.50;99.90;;;;;;5166444;27;20042;-36
2023/10/02 13:06:26;;;;;;;10.32;6.45;;;23.60;99.90;;;;;;5100001;27;20035;-36
2023/10/02 13:08:55;;;;;;;11.20;6.63;;;23.60;99.90;;;;;;5069632;27;20108;-37
2023/10/02 13:11:21;;;;;;;10.88;6.45;;;23.60;99.90;;;;;;5123736;27;20381;-36
2023/10/02 13:13:48;;;;;;;10.98;6.60;;;23.70;99.90;;;;;;5061161;28;20033;-36
2023/10/02 13:16:15;;;;;;;10.20;6.07;;;23.70;99.90;;;;;;5116203;27;20031;-36
2023/10/02 13:18:43;;;;;;;11.15;6.63;;;23.80;99.90;;;;;;5069728;27;20028;-36
2023/10/02 13:21:10;;;;;;;9.65;6.35;;;23.80;99.90;;;;;;5105851;27;20079;-37
2023/10/02 13:23:36;;;;;;;11.85;6.85;;;23.80;99.90;;;;;;5078636;27;20032;-35
2023/10/02 13:26:06;;;;;;;12.75;7.28;;;23.80;99.90;;;;;;5090111;27;20018;-36
2023/10/02 13:28:34;;;;;;;9.90;6.13;;;23.80;99.90;;;;;;5094668;27;20025;-36
2023/10/02 13:31:13;;;;;;;10.18;6.32;;;23.80;99.90;;;;;;5140257;27;20027;-38
2023/10/02 13:33:46;;;;;;;10.35;6.68;;;23.80;99.90;;;;;;5131439;27;20091;-35
2023/10/02 13:36:13;;;;;;;9.30;5.82;;;23.90;99.90;;;;;;5138708;27;20025;-35
2023/10/02 13:38:41;;;;;;;8.38;5.57;;;23.90;99.90;;;;;;5125978;27;20388;-35
2023/10/02 13:41:08;;;;;;;8.85;5.55;;;23.80;99.90;;;;;;5152762;27;20052;-35
2023/10/02 13:43:37;;;;;;;10.52;6.60;;;23.90;99.90;;;;;;5114495;27;20057;-35
2023/10/02 13:46:08;;;;;;;12.05;7.57;;;23.80;99.90;;;;;;5152711;27;20022;-35
2023/10/02 13:48:34;;;;;;;11.75;7.43;;;23.90;99.90;;;;;;5107203;27;20103;-36
2023/10/02 13:51:02;;;;;;;11.52;6.65;;;23.90;99.90;;;;;;5157667;27;20113;-35
2023/10/02 13:53:28;;;;;;;13.65;8.43;;;23.90;99.90;;;;;;5104804;27;20026;-36
2023/10/02 13:55:53;;;;;;;10.57;6.63;;;24.00;99.90;;;;;;5164644;27;20030;-36
2023/10/02 13:58:19;;;;;;;12.15;7.00;;;24.00;99.90;;;;;;5097233;27;20586;-35
2023/10/02 14:00:45;;;;;;;12.65;7.75;;;24.10;99.90;;;;;;5166054;27;20034;-35
2023/10/02 14:03:13;;;;;;;12.05;6.88;;;24.10;99.90;;;;;;5098316;27;20029;-36
2023/10/02 14:05:39;;;;;;;10.50;6.70;;;24.10;99.90;;;;;;5165737;27;20499;-37